Time;durP1;ratioP1;P1;durP2;ratioP2;P2;SDS_P1;SDS_P2;PMS_P1;PMS_P2;Temp;Humidity;BMP_temperature;BMP_pressure;BME280_temperature;BME280_humidity;BME280_pressure;Samples;Min_cycle;Max_cycle;Signal;HPM_P1;HPM_P2
2023/05/31 00:00:09;;;;;;;7.33;3.97;;;18.00;99.90;;;18.25;66.96;95024.22;5072139;28;20498;-54
2023/05/31 00:02:37;;;;;;;9.00;4.80;;;18.00;99.90;;;18.23;67.35;95029.75;5072966;28;20447;-56
2023/05/31 00:05:07;;;;;;;6.17;3.73;;;18.00;99.90;;;18.23;67.53;95029.75;5074935;28;20516;-66
2023/05/31 00:07:34;;;;;;;4.77;4.30;;;17.90;99.90;;;18.24;67.92;95027.88;5069781;28;20451;-54
2023/05/31 00:10:02;;;;;;;9.03;5.13;;;17.90;99.90;;;18.25;67.04;95027.72;5070352;28;20481;-54
2023/05/31 00:12:29;;;;;;;5.80;3.80;;;17.90;99.90;;;18.26;67.82;95034.69;5068510;28;20458;-67
2023/05/31 00:14:56;;;;;;;7.33;3.90;;;18.00;99.90;;;18.27;67.81;95030.19;5070459;28;20466;-55
2023/05/31 00:17:23;;;;;;;6.93;4.20;;;18.00;99.90;;;18.29;67.36;95030.81;5072026;28;20450;-54
2023/05/31 00:19:51;;;;;;;4.07;3.70;;;18.00;99.90;;;18.31;67.22;95027.97;5072524;28;20557;-67
2023/05/31 00:22:19;;;;;;;6.47;4.20;;;18.00;99.90;;;18.32;67.67;95032.28;5074439;28;20462;-65
2023/05/31 00:24:47;;;;;;;4.10;3.80;;;18.00;99.90;;;18.31;67.40;95027.97;5073119;28;20465;-55
2023/05/31 00:27:15;;;;;;;3.93;3.40;;;18.00;99.90;;;18.31;67.31;95034.16;5070847;28;20539;-54
2023/05/31 00:29:42;;;;;;;5.27;3.33;;;18.00;99.90;;;18.33;68.12;95031.31;5075749;28;20490;-56
2023/05/31 00:32:09;;;;;;;6.33;4.40;;;18.00;99.90;;;18.32;67.58;95029.63;5070704;28;20458;-67
2023/05/31 00:34:36;;;;;;;4.60;4.20;;;18.00;99.90;;;18.32;68.35;95027.78;5076752;28;20479;-66
2023/05/31 00:37:04;;;;;;;4.67;4.27;;;18.00;99.90;;;18.31;67.95;95031.47;5068664;28;20455;-66
2023/05/31 00:39:33;;;;;;;3.90;3.70;;;18.00;99.90;;;18.31;67.56;95028.81;5071741;28;20532;-66
2023/05/31 00:42:00;;;;;;;4.90;3.70;;;18.00;99.90;;;18.30;67.77;95029.00;5073431;28;20522;-56
2023/05/31 00:44:27;;;;;;;9.80;4.03;;;18.00;99.90;;;18.29;68.20;95028.16;5072194;28;20501;-54
2023/05/31 00:46:55;;;;;;;4.23;3.60;;;18.00;99.90;;;18.29;68.16;95030.81;5073954;28;20463;-67
2023/05/31 00:49:22;;;;;;;3.90;3.60;;;18.00;99.90;;;18.28;68.70;95029.19;5078180;28;20489;-56
2023/05/31 00:51:49;;;;;;;10.73;3.60;;;18.00;99.90;;;18.28;68.84;95029.19;5076496;28;20504;-65
2023/05/31 00:54:17;;;;;;;8.10;4.37;;;18.00;99.90;;;18.27;68.42;95036.31;5076050;28;20473;-65
2023/05/31 00:56:45;;;;;;;4.30;4.00;;;18.00;99.90;;;18.26;68.17;95037.34;5073865;28;20466;-65
2023/05/31 00:59:12;;;;;;;4.50;3.90;;;18.00;99.90;;;18.25;68.89;95040.19;5080199;28;20572;-64
2023/05/31 01:01:40;;;;;;;6.47;4.30;;;17.90;99.90;;;18.23;68.23;95034.22;5073128;28;20467;-55
2023/05/31 01:04:09;;;;;;;4.80;3.33;;;17.90;99.90;;;18.23;68.93;95036.88;5075486;28;20562;-55
2023/05/31 01:06:36;;;;;;;4.50;4.10;;;17.90;99.90;;;18.22;68.40;95035.25;5071981;28;20450;-55
2023/05/31 01:09:05;;;;;;;4.17;3.77;;;17.90;99.90;;;18.23;68.35;95036.88;5073387;28;20553;-66
2023/05/31 01:11:48;;;;;;;5.30;4.73;;;17.90;99.90;;;18.22;69.14;95040.56;5075189;28;20454;-66
2023/05/31 01:14:20;;;;;;;4.60;4.20;;;17.90;99.90;;;18.20;68.64;95045.22;5077168;28;20486;-65
2023/05/31 01:16:54;;;;;;;11.70;5.00;;;17.90;99.90;;;18.18;68.80;95036.59;5077029;28;20453;-65
2023/05/31 01:19:32;;;;;;;4.37;4.07;;;17.90;99.90;;;18.18;69.37;95041.94;5072558;28;20486;-56
2023/05/31 01:22:14;;;;;;;3.80;3.53;;;17.90;99.90;;;18.16;69.37;95033.31;5075222;28;20448;-65
2023/05/31 01:24:48;;;;;;;5.17;3.83;;;17.90;99.90;;;18.14;69.24;95033.50;5076717;28;20462;-55
2023/05/31 01:27:16;;;;;;;4.27;3.80;;;17.80;99.90;;;18.14;68.72;95036.16;5074869;28;20527;-65
2023/05/31 01:29:44;;;;;;;5.73;3.80;;;17.80;99.90;;;18.12;68.87;95040.81;5075520;28;20859;-54
2023/05/31 01:32:13;;;;;;;5.43;4.10;;;17.80;99.90;;;18.12;69.26;95034.69;5075138;28;21080;-56
2023/05/31 01:34:40;;;;;;;4.80;4.40;;;17.80;99.90;;;18.11;69.49;95044.50;5074008;28;20542;-54
2023/05/31 01:37:08;;;;;;;5.57;3.87;;;17.80;99.90;;;18.09;69.43;95036.72;5077596;28;20493;-65
2023/05/31 01:39:35;;;;;;;5.00;3.40;;;17.80;99.90;;;18.09;69.34;95039.38;5077196;28;20485;-65
2023/05/31 01:42:02;;;;;;;6.57;3.93;;;17.80;99.90;;;18.10;69.44;95035.66;5075387;28;20971;-66
2023/05/31 01:44:31;;;;;;;6.37;4.20;;;17.80;99.90;;;18.09;69.26;95035.84;5076522;28;20474;-55
2023/05/31 01:46:58;;;;;;;4.37;3.83;;;17.80;99.90;;;18.07;69.91;95038.69;5075947;28;20513;-66
2023/05/31 01:49:25;;;;;;;4.43;4.00;;;17.80;99.90;;;18.07;69.23;95033.38;5079491;28;20486;-55
2023/05/31 01:51:52;;;;;;;10.20;4.40;;;17.80;99.90;;;18.07;69.32;95044.03;5069940;28;20470;-63
2023/05/31 01:54:20;;;;;;;4.93;4.60;;;17.80;99.90;;;18.06;69.69;95039.72;5073788;28;21010;-53
2023/05/31 01:56:47;;;;;;;4.40;4.00;;;17.80;99.90;;;18.07;70.03;95040.53;5072071;28;20455;-67
2023/05/31 01:59:14;;;;;;;4.40;3.87;;;17.80;99.90;;;18.07;69.62;95040.53;5074487;28;20515;-54
2023/05/31 02:01:43;;;;;;;4.47;3.93;;;17.80;99.90;;;18.06;69.94;95039.72;5075797;28;20505;-55
2023/05/31 02:04:10;;;;;;;6.30;4.20;;;17.80;99.90;;;18.05;70.08;95038.06;5077916;28;20536;-55
2023/05/31 02:06:37;;;;;;;5.00;4.57;;;17.80;99.90;;;18.04;70.02;95041.72;5073354;28;20446;-55
2023/05/31 02:09:06;;;;;;;5.83;4.37;;;17.70;99.90;;;18.05;69.55;95047.91;5075096;28;20489;-55
2023/05/31 02:11:33;;;;;;;5.90;4.57;;;17.70;99.90;;;18.04;70.08;95048.91;5070170;28;20455;-56
2023/05/31 02:14:00;;;;;;;7.00;4.30;;;17.70;99.90;;;18.03;70.06;95048.06;5075343;28;20901;-65
2023/05/31 02:16:28;;;;;;;5.40;5.00;;;17.70;99.90;;;18.01;69.92;95051.91;5075060;28;20454;-52
2023/05/31 02:18:58;;;;;;;5.47;4.87;;;17.70;99.90;;;18.01;69.84;95049.25;5075227;28;20540;-53
2023/05/31 02:21:25;;;;;;;5.20;4.80;;;17.70;99.90;;;17.99;69.66;95041.44;5075023;28;20446;-52
2023/05/31 02:23:52;;;;;;;5.00;4.60;;;17.70;99.90;;;17.98;70.19;95041.63;5071824;28;21011;-54
2023/05/31 02:26:21;;;;;;;8.30;4.43;;;17.70;99.90;;;17.97;70.17;95048.81;5075116;28;20445;-54
2023/05/31 02:28:48;;;;;;;7.90;4.80;;;17.70;99.90;;;17.97;70.34;95055.94;5071130;28;20522;-57
2023/05/31 02:31:16;;;;;;;5.23;4.73;;;17.70;99.90;;;17.96;70.02;95048.97;5075338;28;20507;-65
2023/05/31 02:33:43;;;;;;;4.70;4.30;;;17.70;99.90;;;17.96;70.43;95051.66;5070851;28;20548;-56
2023/05/31 02:36:12;;;;;;;10.20;5.20;;;17.70;99.90;;;17.95;70.31;95057.97;5073374;28;20459;-54
2023/05/31 02:38:39;;;;;;;6.50;5.43;;;17.70;99.90;;;17.94;70.12;95053.63;5070001;28;20459;-65
2023/05/31 02:41:06;;;;;;;5.00;4.60;;;17.60;99.90;;;17.92;70.01;95052.00;5071529;28;20454;-56
2023/05/31 02:43:34;;;;;;;8.43;4.80;;;17.60;99.90;;;17.92;70.33;95049.34;5072693;28;20539;-65
2023/05/31 02:46:01;;;;;;;6.90;5.27;;;17.60;99.90;;;17.91;70.59;95049.53;5072248;28;20459;-66
2023/05/31 02:48:29;;;;;;;8.10;5.70;;;17.60;99.90;;;17.90;70.14;95048.69;5070692;28;20467;-53
2023/05/31 02:50:56;;;;;;;5.87;5.37;;;17.60;99.90;;;17.89;70.01;95041.72;5079947;28;20457;-54
2023/05/31 02:53:26;;;;;;;6.73;6.07;;;17.60;99.90;;;17.87;69.97;95041.03;5074450;28;21236;-65
2023/05/31 02:55:54;;;;;;;7.33;6.60;;;17.60;99.90;;;17.85;70.61;95045.72;5074485;28;20454;-66
2023/05/31 02:58:21;;;;;;;6.63;6.03;;;17.60;99.90;;;17.87;70.48;95043.69;5074175;28;20461;-52
2023/05/31 03:00:48;;;;;;;9.20;7.23;;;17.60;99.90;;;17.86;70.37;95052.69;5074830;28;20447;-52
2023/05/31 03:03:18;;;;;;;13.20;6.03;;;17.60;99.90;;;17.85;70.08;95051.03;5074041;28;20516;-65
2023/05/31 03:05:45;;;;;;;9.10;6.20;;;17.60;99.90;;;17.84;70.02;95046.72;5076392;28;20493;-65
2023/05/31 03:08:12;;;;;;;7.97;6.10;;;17.60;99.90;;;17.83;70.31;95046.88;5076506;28;20451;-55
2023/05/31 03:10:41;;;;;;;7.90;5.77;;;17.50;99.90;;;17.82;70.88;95051.41;5068707;28;20497;-65
2023/05/31 03:13:08;;;;;;;6.90;6.07;;;17.50;99.90;;;17.81;70.95;95055.06;5069784;28;20508;-65
2023/05/31 03:15:36;;;;;;;6.60;6.00;;;17.50;99.90;;;17.81;70.83;95054.22;5068794;28;20450;-54
2023/05/31 03:18:04;;;;;;;8.33;7.00;;;17.50;99.90;;;17.82;71.03;95066.53;5074032;28;20967;-66
2023/05/31 03:20:32;;;;;;;10.53;5.93;;;17.50;99.90;;;17.82;70.50;95055.91;5075417;28;20495;-56
2023/05/31 03:23:00;;;;;;;7.07;5.93;;;17.50;99.90;;;17.82;70.88;95061.22;5071622;28;20476;-65
2023/05/31 03:25:27;;;;;;;13.87;6.07;;;17.50;99.90;;;17.82;70.75;95062.03;5073207;28;20879;-66
2023/05/31 03:27:55;;;;;;;7.50;5.37;;;17.50;99.90;;;17.82;70.67;95062.03;5071123;28;20531;-55
2023/05/31 03:30:23;;;;;;;9.90;5.43;;;17.50;99.90;;;17.82;71.00;95064.69;5076779;28;20491;-57
2023/05/31 03:32:50;;;;;;;5.63;4.93;;;17.50;99.90;;;17.83;70.41;95063.69;5072516;28;20533;-65
2023/05/31 03:35:18;;;;;;;8.23;5.57;;;17.50;99.90;;;17.84;70.94;95064.50;5068127;28;20479;-55
2023/05/31 03:37:45;;;;;;;5.90;5.30;;;17.50;99.90;;;17.84;71.34;95073.31;5073876;28;20457;-55
2023/05/31 03:40:12;;;;;;;9.37;5.40;;;17.60;99.90;;;17.85;71.19;95067.00;5070404;28;20632;-56
2023/05/31 03:42:39;;;;;;;9.57;5.33;;;17.60;99.90;;;17.86;71.31;95068.66;5074706;28;20458;-65
2023/05/31 03:45:09;;;;;;;9.80;6.67;;;17.60;99.90;;;17.88;71.23;95063.16;5067098;28;21081;-66
2023/05/31 03:47:36;;;;;;;8.03;5.60;;;17.60;99.90;;;17.90;71.05;95075.28;5070930;28;20534;-66
2023/05/31 03:50:05;;;;;;;6.00;5.13;;;17.60;99.90;;;17.91;70.46;95076.94;5084696;28;20489;-65
2023/05/31 03:52:33;;;;;;;10.57;6.90;;;17.60;99.90;;;17.92;71.22;95077.78;5068180;28;20476;-63
2023/05/31 03:55:00;;;;;;;12.43;6.67;;;17.60;99.90;;;17.94;71.25;95078.44;5068653;28;20463;-64
2023/05/31 03:57:27;;;;;;;6.10;5.50;;;17.60;99.90;;;17.96;71.03;95083.59;5074040;28;20652;-54
2023/05/31 03:59:55;;;;;;;9.23;5.63;;;17.60;99.90;;;17.97;71.07;95079.91;5070363;28;20482;-65
2023/05/31 04:02:23;;;;;;;9.97;6.33;;;17.70;99.90;;;17.98;71.20;95073.56;5072583;28;20466;-65
2023/05/31 04:04:51;;;;;;;9.87;6.07;;;17.70;99.90;;;18.00;70.76;95077.72;5071588;28;20540;-64
2023/05/31 04:07:18;;;;;;;10.30;6.30;;;17.70;99.90;;;18.02;70.50;95089.00;5069385;28;20450;-64
2023/05/31 04:09:45;;;;;;;21.33;6.83;;;17.70;99.90;;;18.05;70.33;95079.84;5072638;28;20491;-53
2023/05/31 04:12:13;;;;;;;8.50;5.60;;;17.70;99.90;;;18.07;70.75;95075.97;5069709;28;20939;-64
2023/05/31 04:14:40;;;;;;;8.03;5.53;;;17.80;99.90;;;18.11;70.27;95081.78;5066028;28;21037;-65
2023/05/31 04:17:07;;;;;;;10.40;5.30;;;17.80;99.90;;;18.14;70.13;95085.88;5075096;28;20458;-65
2023/05/31 04:19:36;;;;;;;6.70;4.93;;;17.80;99.90;;;18.17;70.56;95083.72;5067550;28;20796;-55
2023/05/31 04:22:03;;;;;;;11.23;6.17;;;17.80;99.90;;;18.23;70.31;95093.63;5074900;28;20774;-55
2023/05/31 04:24:31;;;;;;;14.20;6.33;;;17.90;99.90;;;18.30;70.45;95093.72;5066743;28;20528;-55
2023/05/31 04:26:58;;;;;;;12.97;5.47;;;18.00;99.90;;;18.33;70.24;95089.88;5073554;28;20537;-64
2023/05/31 04:29:25;;;;;;;18.83;6.37;;;18.00;99.90;;;18.40;69.96;95096.97;5068413;28;20502;-64
2023/05/31 04:31:52;;;;;;;9.50;6.00;;;18.10;99.90;;;18.44;69.48;95102.75;5067998;28;20470;-55
2023/05/31 04:34:20;;;;;;;12.77;7.00;;;18.10;99.90;;;18.47;69.82;95105.03;5070836;28;20539;-55
2023/05/31 04:36:49;;;;;;;21.73;7.77;;;18.10;99.90;;;18.52;69.46;95112.47;5070761;28;20454;-56
2023/05/31 04:39:16;;;;;;;20.30;6.40;;;18.20;99.90;;;18.55;69.85;95110.25;5070199;28;20474;-58
2023/05/31 04:41:44;;;;;;;19.03;7.80;;;18.20;99.90;;;18.61;69.73;95114.03;5070584;28;20463;-55
2023/05/31 04:44:11;;;;;;;10.23;7.63;;;18.20;99.90;;;18.62;69.23;95115.69;5069493;28;21048;-54
2023/05/31 04:46:40;;;;;;;10.40;6.60;;;18.30;99.90;;;18.64;69.14;95122.50;5073340;28;20497;-56
2023/05/31 04:49:08;;;;;;;15.00;7.00;;;18.30;99.90;;;18.67;69.64;95117.78;5069353;28;20508;-54
2023/05/31 04:51:35;;;;;;;9.43;6.40;;;18.30;99.90;;;18.69;69.04;95110.47;5070469;28;20463;-66
2023/05/31 04:54:05;;;;;;;12.13;6.80;;;18.30;99.90;;;18.71;68.84;95113.75;5072468;28;20470;-55
2023/05/31 04:56:33;;;;;;;19.70;6.80;;;18.40;99.90;;;18.70;69.56;95112.09;5071236;28;20443;-55
2023/05/31 04:59:00;;;;;;;12.60;7.10;;;18.40;99.90;;;18.71;69.54;95117.25;5073498;28;20500;-67
2023/05/31 05:01:27;;;;;;;15.87;7.27;;;18.40;99.90;;;18.75;69.15;95123.88;5075492;28;20457;-67
2023/05/31 05:03:54;;;;;;;10.33;6.37;;;18.40;99.90;;;18.76;69.39;95125.53;5065733;28;20471;-55
2023/05/31 05:06:22;;;;;;;17.33;6.67;;;18.40;99.90;;;18.80;69.16;95115.31;5072729;28;20443;-56
2023/05/31 05:08:49;;;;;;;9.00;6.63;;;18.50;99.90;;;18.82;69.13;95113.28;5074426;28;20471;-55
2023/05/31 05:11:18;;;;;;;16.43;6.87;;;18.50;99.90;;;18.89;68.61;95121.41;5068823;28;20568;-55
2023/05/31 05:13:45;;;;;;;16.27;7.20;;;18.50;99.90;;;18.93;68.88;95120.88;5066511;28;20475;-65
2023/05/31 05:16:12;;;;;;;15.90;6.80;;;18.60;99.90;;;18.97;68.48;95124.78;5072609;28;20871;-66
2023/05/31 05:18:40;;;;;;;10.83;7.40;;;18.60;99.90;;;18.99;68.60;95128.13;5068343;28;21022;-54
2023/05/31 05:21:08;;;;;;;13.83;6.93;;;18.70;99.90;;;19.04;68.89;95134.72;5073286;28;20465;-55
2023/05/31 05:23:37;;;;;;;12.60;7.67;;;18.70;99.90;;;19.07;68.70;95137.84;5073972;28;20471;-56
2023/05/31 05:26:05;;;;;;;20.70;7.70;;;18.80;99.90;;;19.12;68.37;95147.97;5071641;28;20539;-67
2023/05/31 05:28:33;;;;;;;10.17;7.20;;;18.80;99.90;;;19.16;68.41;95144.75;5072079;28;20466;-56
2023/05/31 05:31:01;;;;;;;20.37;7.33;;;18.90;99.90;;;19.21;68.27;95146.84;5067773;28;20490;-55
2023/05/31 05:33:29;;;;;;;13.60;7.20;;;18.90;99.90;;;19.26;68.01;95143.63;5075630;28;20897;-55
2023/05/31 05:35:56;;;;;;;25.90;7.43;;;18.90;99.90;;;19.30;67.68;95145.72;5073966;28;20454;-68
2023/05/31 05:38:23;;;;;;;11.80;8.57;;;19.00;99.90;;;19.36;68.01;95144.13;5077664;28;20454;-55
2023/05/31 05:40:50;;;;;;;13.87;7.63;;;19.00;99.90;;;19.42;67.50;95148.72;5073731;28;20846;-67
2023/05/31 05:43:18;;;;;;;15.13;8.07;;;19.10;99.90;;;19.48;67.71;95153.28;5073503;28;20453;-68
2023/05/31 05:45:46;;;;;;;9.20;6.70;;;19.10;99.90;;;19.54;67.24;95151.72;5075838;28;20458;-53
2023/05/31 05:48:14;;;;;;;8.70;6.87;;;19.20;99.90;;;19.60;67.43;95150.16;5072126;28;20442;-67
2023/05/31 05:50:41;;;;;;;7.67;6.83;;;19.20;99.90;;;19.66;67.30;95155.56;5074732;28;20536;-56
2023/05/31 05:53:09;;;;;;;15.37;7.57;;;19.30;99.90;;;19.74;66.91;95159.13;5078791;28;20454;-66
2023/05/31 05:55:36;;;;;;;15.10;7.60;;;19.40;99.90;;;19.79;67.21;95151.41;5072487;28;20535;-55
2023/05/31 05:58:03;;;;;;;21.10;7.00;;;19.40;99.90;;;19.85;66.57;95158.66;5076294;28;20537;-56
2023/05/31 06:00:32;;;;;;;13.50;7.13;;;19.50;99.90;;;19.93;66.53;95152.38;5075594;28;20451;-67
2023/05/31 06:03:00;;;;;;;14.60;7.97;;;19.50;99.90;;;20.00;66.49;95147.88;5075595;28;20478;-69
2023/05/31 06:05:28;;;;;;;16.60;8.40;;;19.60;99.90;;;20.08;66.42;95152.28;5073920;28;20471;-68
2023/05/31 06:07:55;;;;;;;13.43;7.63;;;19.70;99.90;;;20.16;66.14;95160.16;5077497;28;20468;-56
2023/05/31 06:10:23;;;;;;;13.03;8.90;;;19.80;99.90;;;20.24;65.93;95158.16;5072888;28;20494;-66
2023/05/31 06:12:50;;;;;;;18.00;8.50;;;19.80;99.90;;;20.32;65.97;95156.38;5077746;28;21029;-55
2023/05/31 06:15:17;;;;;;;19.17;8.53;;;19.90;99.90;;;20.39;65.60;95149.25;5072054;28;20467;-67
2023/05/31 06:17:45;;;;;;;11.50;8.50;;;20.00;99.90;;;20.48;65.57;95157.94;5079157;28;20462;-55
2023/05/31 06:20:13;;;;;;;21.73;8.37;;;20.10;99.90;;;20.56;65.57;95152.47;5072195;28;20482;-55
2023/05/31 06:22:41;;;;;;;22.90;8.40;;;20.20;99.90;;;20.66;65.53;95160.16;5081377;28;20458;-67
2023/05/31 06:25:09;;;;;;;13.20;9.23;;;20.30;99.90;;;20.76;65.23;95164.16;5072606;28;20463;-54
2023/05/31 06:27:36;;;;;;;17.57;9.27;;;20.40;99.90;;;20.84;64.77;95159.69;5084705;28;20446;-64
2023/05/31 06:30:04;;;;;;;17.00;9.30;;;20.50;99.90;;;20.89;64.55;95159.91;5073030;28;21007;-55
2023/05/31 06:32:31;;;;;;;12.00;8.90;;;20.50;99.90;;;20.95;64.55;95156.44;5076219;28;20446;-68
2023/05/31 06:34:58;;;;;;;14.40;8.87;;;20.60;99.90;;;21.04;64.49;95155.25;5073381;28;20543;-55
2023/05/31 06:37:27;;;;;;;15.77;8.50;;;20.60;99.90;;;21.14;64.37;95161.06;5075664;28;20458;-55
2023/05/31 06:39:55;;;;;;;32.80;9.17;;;20.70;99.90;;;21.21;63.71;95161.09;5074319;28;20543;-55
2023/05/31 06:42:22;;;;;;;18.70;11.63;;;20.80;99.90;;;21.20;63.38;95154.09;5073705;28;20443;-54
2023/05/31 06:44:50;;;;;;;12.63;9.43;;;20.80;99.90;;;21.18;63.01;95157.97;5072637;28;20471;-54
2023/05/31 06:47:17;;;;;;;22.50;9.50;;;20.80;99.90;;;21.22;63.18;95153.88;5072827;28;20520;-54
2023/05/31 06:49:45;;;;;;;17.70;9.97;;;20.80;99.90;;;21.30;63.15;95151.03;5075387;28;20462;-68
2023/05/31 06:52:13;;;;;;;27.07;9.80;;;20.90;99.90;;;21.39;63.19;95155.19;5071664;28;20455;-53
2023/05/31 06:54:41;;;;;;;20.73;9.70;;;21.00;99.90;;;21.52;62.54;95150.94;5075075;28;20997;-67
2023/05/31 06:57:09;;;;;;;18.93;9.87;;;21.10;99.90;;;21.64;62.69;95152.84;5070846;28;20450;-55
2023/05/31 06:59:36;;;;;;;17.37;9.37;;;21.20;99.90;;;21.74;61.96;95146.28;5076046;28;20523;-67
2023/05/31 07:02:03;;;;;;;13.80;8.97;;;21.30;99.90;;;21.82;62.22;95154.13;5069977;28;20459;-66
2023/05/31 07:04:31;;;;;;;29.07;9.30;;;21.40;99.90;;;21.88;61.49;95160.53;5076099;28;20478;-55
2023/05/31 07:06:58;;;;;;;17.70;9.57;;;21.50;99.90;;;21.90;61.63;95155.78;5069727;28;20447;-54
2023/05/31 07:09:25;;;;;;;22.23;9.13;;;21.50;99.90;;;21.91;61.85;95168.16;5076353;28;20470;-55
2023/05/31 07:11:54;;;;;;;17.83;10.57;;;21.50;99.90;;;21.96;61.19;95163.00;5070461;28;20490;-54
2023/05/31 07:14:22;;;;;;;18.27;10.13;;;21.50;99.90;;;21.98;61.70;95160.94;5074996;28;20462;-56
2023/05/31 07:16:49;;;;;;;22.63;10.63;;;21.60;99.90;;;21.99;61.72;95165.28;5071989;28;20462;-68
2023/05/31 07:19:16;;;;;;;19.47;9.67;;;21.60;99.90;;;22.04;61.56;95160.13;5071899;28;20475;-54
2023/05/31 07:21:44;;;;;;;16.33;8.57;;;21.70;99.90;;;22.14;61.13;95160.56;5078728;28;20823;-54
2023/05/31 07:24:11;;;;;;;22.17;9.77;;;21.70;99.90;;;22.22;61.19;95164.09;5073029;28;20506;-55
2023/05/31 07:26:38;;;;;;;17.10;9.53;;;21.80;99.90;;;22.27;60.59;95169.63;5074213;28;20882;-67
2023/05/31 07:29:07;;;;;;;16.83;9.40;;;21.90;99.90;;;22.28;60.17;95160.56;5071747;28;20470;-67
2023/05/31 07:31:34;;;;;;;23.77;9.53;;;21.90;99.90;;;22.31;59.81;95157.53;5073555;28;20567;-55
2023/05/31 07:34:02;;;;;;;11.20;9.00;;;21.90;99.90;;;22.38;60.51;95158.31;5072730;28;20470;-55
2023/05/31 07:36:30;;;;;;;18.77;8.60;;;21.90;99.90;;;22.46;60.60;95155.44;5067546;28;20451;-55
2023/05/31 07:38:59;;;;;;;12.27;7.83;;;22.00;99.90;;;22.61;60.12;95159.78;5071215;28;20482;-66
2023/05/31 07:41:27;;;;;;;11.20;8.30;;;22.10;99.90;;;22.72;59.33;95151.91;5071915;28;20458;-56
2023/05/31 07:43:55;;;;;;;27.83;7.83;;;22.30;99.90;;;22.86;59.00;95150.03;5067629;28;20505;-68
2023/05/31 07:46:24;;;;;;;11.90;7.47;;;22.40;99.90;;;22.98;59.43;95155.56;5074152;28;20537;-53
2023/05/31 07:48:53;;;;;;;9.33;6.50;;;22.50;99.90;;;23.07;58.43;95150.81;5074215;28;21031;-54
2023/05/31 07:51:21;;;;;;;13.53;7.90;;;22.70;99.40;;;23.13;57.41;95144.63;5074830;28;20482;-54
2023/05/31 07:53:48;;;;;;;13.43;7.00;;;22.70;98.70;;;23.18;57.82;95147.50;5073094;28;20529;-56
2023/05/31 07:56:15;;;;;;;9.53;7.57;;;22.70;98.80;;;23.23;57.37;95149.56;5073151;28;20966;-56
2023/05/31 07:58:43;;;;;;;17.13;6.27;;;22.80;98.40;;;23.31;56.53;95151.97;5072368;28;20860;-57
2023/05/31 08:01:10;;;;;;;15.93;7.77;;;22.90;98.40;;;23.39;56.68;95150.91;5072683;28;20453;-55
2023/05/31 08:03:39;;;;;;;8.17;6.30;;;23.00;98.20;;;23.47;57.07;95150.69;5069209;28;20478;-67
2023/05/31 08:06:07;;;;;;;10.10;7.20;;;23.00;98.00;;;23.55;55.70;95152.31;5073162;28;20454;-68
2023/05/31 08:08:34;;;;;;;13.00;6.17;;;23.10;97.70;;;23.65;55.72;95157.22;5067554;28;20508;-53
2023/05/31 08:11:02;;;;;;;8.03;6.33;;;23.20;97.70;;;23.74;55.97;95151.38;5074572;28;20574;-55
2023/05/31 08:13:30;;;;;;;7.70;6.00;;;23.30;97.50;;;23.78;55.32;95143.69;5069385;28;20501;-55
2023/05/31 08:15:57;;;;;;;12.27;6.57;;;23.40;97.20;;;23.85;55.50;95147.22;5077909;28;20460;-55
2023/05/31 08:18:24;;;;;;;11.43;6.10;;;23.40;96.90;;;23.95;55.15;95142.19;5073425;28;20443;-66
2023/05/31 08:20:53;;;;;;;11.70;6.93;;;23.50;96.70;;;24.01;54.31;95150.41;5073057;28;20525;-56
2023/05/31 08:23:20;;;;;;;10.97;6.10;;;23.60;96.30;;;23.99;53.95;95150.63;5077958;28;20577;-67
2023/05/31 08:25:48;;;;;;;9.53;6.67;;;23.60;95.60;;;23.94;54.09;95148.59;5073633;28;20519;-67
2023/05/31 08:28:15;;;;;;;11.60;7.33;;;23.60;95.80;;;23.90;54.34;95144.69;5072296;28;20816;-56
2023/05/31 08:30:42;;;;;;;11.40;6.97;;;23.50;95.90;;;23.95;54.97;95141.34;5074880;28;20497;-67
2023/05/31 08:33:10;;;;;;;7.47;6.77;;;23.60;96.00;;;24.02;54.56;95150.22;5069680;28;20459;-68
2023/05/31 08:35:37;;;;;;;14.27;7.67;;;23.70;95.80;;;24.07;54.35;95136.94;5076093;28;20830;-54
2023/05/31 08:38:06;;;;;;;12.97;7.03;;;23.70;95.60;;;24.18;54.50;95143.47;5068834;28;20710;-67
2023/05/31 08:40:33;;;;;;;8.43;6.30;;;23.80;95.70;;;24.29;53.75;95140.09;5075613;28;20462;-55
2023/05/31 08:43:01;;;;;;;11.10;6.27;;;23.90;95.40;;;24.43;53.41;95138.13;5072011;28;20462;-68
2023/05/31 08:45:29;;;;;;;8.80;6.10;;;24.00;95.40;;;24.57;53.85;95127.22;5070846;28;21028;-67
2023/05/31 08:48:01;;;;;;;12.90;6.20;;;24.10;95.20;;;24.72;52.72;95118.84;5069846;28;20963;-55
2023/05/31 08:50:29;;;;;;;15.20;7.33;;;24.30;95.00;;;24.91;53.20;95125.06;5071153;28;20463;-55
2023/05/31 08:52:56;;;;;;;11.03;6.00;;;24.40;95.00;;;25.15;52.45;95123.38;5074594;28;20482;-68
2023/05/31 08:55:25;;;;;;;13.30;6.23;;;24.70;94.40;;;25.31;51.00;95120.09;5069419;28;20969;-68
2023/05/31 08:57:53;;;;;;;7.30;6.17;;;24.80;93.30;;;25.44;51.79;95115.56;5074622;28;20464;-56
2023/05/31 09:00:22;;;;;;;10.97;6.00;;;25.00;93.90;;;25.64;51.68;95108.06;5072910;28;20467;-67
2023/05/31 09:02:50;;;;;;;13.93;6.10;;;25.20;93.80;;;25.95;51.47;95104.31;5068670;28;20445;-55
2023/05/31 09:05:17;;;;;;;11.43;6.90;;;25.40;93.60;;;26.41;50.92;95101.94;5072817;28;20481;-69
2023/05/31 09:07:46;;;;;;;11.17;6.57;;;25.80;93.40;;;26.86;50.07;95103.25;5075747;28;20449;-67
2023/05/31 09:10:15;;;;;;;7.60;5.93;;;26.30;92.80;;;27.31;49.64;95099.94;5076161;28;20474;-56
2023/05/31 09:12:44;;;;;;;11.53;5.83;;;26.70;92.30;;;27.75;47.83;95085.91;5077565;28;20925;-67
2023/05/31 09:15:14;;;;;;;17.00;6.63;;;27.10;91.00;;;28.01;48.34;95091.78;5072136;28;20510;-68
2023/05/31 09:17:45;;;;;;;6.80;5.90;;;27.40;90.80;;;28.22;47.30;95092.94;5078680;28;20496;-68
2023/05/31 09:20:12;;;;;;;9.63;5.77;;;27.70;89.80;;;28.41;47.12;95088.09;5071376;28;20501;-54
2023/05/31 09:22:40;;;;;;;5.80;4.90;;;27.90;88.70;;;28.52;47.10;95084.50;5082370;28;20536;-54
2023/05/31 09:25:08;;;;;;;10.10;5.93;;;28.00;87.50;;;28.48;46.71;95075.25;5074849;28;20470;-55
2023/05/31 09:27:36;;;;;;;7.20;5.50;;;28.00;85.60;;;28.39;46.79;95082.13;5077122;28;20451;-66
2023/05/31 09:30:09;;;;;;;7.03;5.70;;;28.00;85.30;;;28.34;45.95;95073.94;5074205;28;20562;-56
2023/05/31 09:32:36;;;;;;;8.40;5.90;;;27.90;84.70;;;28.31;45.89;95067.13;5074143;28;20478;-58
2023/05/31 09:35:14;;;;;;;9.93;5.57;;;27.90;83.50;;;28.35;45.78;95068.28;5074930;28;20531;-68
2023/05/31 09:37:45;;;;;;;5.50;5.00;;;27.90;82.70;;;28.33;45.65;95051.47;5074611;28;20457;-66
2023/05/31 09:40:14;;;;;;;7.00;4.60;;;27.90;82.00;;;28.14;45.15;95063.63;5077875;28;20552;-69
2023/05/31 09:42:48;;;;;;;12.13;4.90;;;27.70;80.70;;;27.84;45.21;95064.69;5071855;28;20863;-67
2023/05/31 09:45:17;;;;;;;7.73;4.50;;;27.50;79.20;;;27.59;44.13;95057.78;5072233;28;20560;-67
2023/05/31 09:47:45;;;;;;;4.87;4.47;;;27.30;77.20;;;27.30;44.61;95057.75;5072748;28;20950;-56
2023/05/31 09:50:12;;;;;;;5.33;4.80;;;27.00;78.20;;;26.90;44.13;95063.13;5079110;28;20457;-54
2023/05/31 09:52:40;;;;;;;4.43;4.03;;;26.60;76.10;;;26.54;45.53;95048.81;5071707;28;20498;-69
2023/05/31 09:55:09;;;;;;;5.97;4.47;;;26.30;78.40;;;26.47;45.10;95049.75;5076387;28;20513;-55
2023/05/31 09:57:41;;;;;;;6.73;4.40;;;26.20;78.00;;;26.59;45.34;95051.63;5073155;28;20500;-56
2023/05/31 10:00:15;;;;;;;7.33;4.30;;;26.20;78.40;;;26.76;44.65;95052.59;5074221;28;20488;-56
2023/05/31 10:02:44;;;;;;;9.07;5.60;;;26.30;77.80;;;26.80;45.01;95050.22;5074760;28;20445;-55
2023/05/31 10:05:12;;;;;;;9.70;4.87;;;26.40;78.00;;;26.79;44.88;95056.69;5076959;28;20566;-55
2023/05/31 10:07:40;;;;;;;6.33;3.80;;;26.40;77.80;;;26.74;44.76;95052.00;5076089;28;20553;-70
2023/05/31 10:10:09;;;;;;;6.90;4.23;;;26.40;77.60;;;26.72;43.34;95061.38;5072071;28;21030;-68
2023/05/31 10:12:50;;;;;;;3.90;3.60;;;26.30;75.20;;;26.60;43.18;95062.19;5075902;28;20546;-68
2023/05/31 10:15:19;;;;;;;10.83;3.77;;;26.20;74.40;;;26.40;44.23;95059.84;5074821;28;20485;-56
2023/05/31 10:17:55;;;;;;;4.20;3.67;;;26.10;75.50;;;26.15;44.69;95043.06;5075587;28;21059;-67